createdAt,value
2018-12-23T00:01:15.611Z,8.90
2018-12-23T00:03:41.908Z,8.90
2018-12-23T00:06:08.158Z,8.90
2018-12-23T00:08:34.329Z,8.90
2018-12-23T00:11:00.570Z,8.90
2018-12-23T00:13:26.825Z,8.90
2018-12-23T00:15:53.070Z,8.90
2018-12-23T00:18:19.342Z,8.90
2018-12-23T00:20:45.576Z,8.90
2018-12-23T00:23:11.837Z,8.90
2018-12-23T00:25:38.086Z,9.00
2018-12-23T00:28:04.358Z,8.90
2018-12-23T00:30:30.609Z,8.90
2018-12-23T00:32:56.872Z,8.90
2018-12-23T00:35:23.125Z,8.80
2018-12-23T00:37:55.542Z,8.80
2018-12-23T00:40:21.789Z,8.80
2018-12-23T00:42:48.046Z,8.70
2018-12-23T00:45:14.294Z,8.70
2018-12-23T00:47:40.533Z,8.60
2018-12-23T00:50:06.917Z,8.60
2018-12-23T00:52:33.170Z,8.60
2018-12-23T00:54:59.434Z,8.60
2018-12-23T00:57:25.686Z,8.60
2018-12-23T00:59:51.989Z,8.60
2018-12-23T01:02:18.292Z,8.60
2018-12-23T01:04:44.565Z,8.60
2018-12-23T01:07:10.880Z,8.70
2018-12-23T01:09:37.212Z,8.60
2018-12-23T01:12:03.478Z,8.60
2018-12-23T01:14:29.742Z,8.60
2018-12-23T01:16:55.982Z,8.60
2018-12-23T01:19:22.237Z,8.70
2018-12-23T01:21:48.482Z,8.70
2018-12-23T01:24:14.737Z,8.70
2018-12-23T01:26:41.018Z,8.70
2018-12-23T01:29:07.273Z,8.70
2018-12-23T01:31:33.533Z,8.80
2018-12-23T01:33:59.778Z,8.80
2018-12-23T01:36:26.037Z,8.70
2018-12-23T01:38:52.272Z,8.80
2018-12-23T01:41:18.538Z,8.70
2018-12-23T01:43:44.810Z,8.80
2018-12-23T01:46:11.162Z,8.80
2018-12-23T01:48:37.453Z,8.80
2018-12-23T01:51:03.636Z,8.80
2018-12-23T01:53:36.598Z,8.80
2018-12-23T01:56:02.985Z,8.80
2018-12-23T01:58:29.230Z,8.80
2018-12-23T02:00:55.518Z,8.80
2018-12-23T02:03:21.753Z,8.70
2018-12-23T02:05:48.009Z,8.80
2018-12-23T02:08:14.257Z,8.70
2018-12-23T02:10:40.518Z,8.80
2018-12-23T02:13:06.782Z,8.70
2018-12-23T02:15:33.172Z,8.60
2018-12-23T02:17:59.425Z,8.60
2018-12-23T02:20:25.705Z,8.60
2018-12-23T02:22:52.073Z,8.60
2018-12-23T02:25:18.323Z,8.60
2018-12-23T02:27:44.817Z,8.60
2018-12-23T02:30:11.187Z,8.60
2018-12-23T02:32:37.441Z,8.50
2018-12-23T02:35:04.032Z,8.50
2018-12-23T02:37:30.306Z,8.50
2018-12-23T02:39:56.766Z,8.50
2018-12-23T02:42:23.034Z,8.40
2018-12-23T02:44:49.281Z,8.40
2018-12-23T02:47:15.454Z,8.40
2018-12-23T02:49:41.705Z,8.40
2018-12-23T02:52:07.974Z,8.40
2018-12-23T02:54:34.232Z,8.40
2018-12-23T02:57:00.503Z,8.40
2018-12-23T02:59:26.737Z,8.30
2018-12-23T03:01:52.996Z,8.30
2018-12-23T03:04:19.268Z,8.30
2018-12-23T03:06:45.541Z,8.30
2018-12-23T03:09:11.788Z,8.20
2018-12-23T03:11:38.264Z,8.20
2018-12-23T03:14:04.527Z,8.20
2018-12-23T03:16:30.967Z,8.20
2018-12-23T03:18:57.229Z,8.10
2018-12-23T03:21:23.549Z,8.20
2018-12-23T03:23:49.709Z,8.30
2018-12-23T03:26:15.954Z,8.30
2018-12-23T03:28:42.249Z,8.30
2018-12-23T03:31:08.486Z,8.30
2018-12-23T03:33:34.816Z,8.30
2018-12-23T03:36:01.198Z,8.30
2018-12-23T03:38:27.466Z,8.30
2018-12-23T03:40:53.716Z,8.30
2018-12-23T03:43:20.109Z,8.30
2018-12-23T03:45:46.361Z,8.30
2018-12-23T03:48:12.654Z,8.20
2018-12-23T03:50:38.912Z,8.10
2018-12-23T03:53:05.164Z,8.10
2018-12-23T03:55:31.473Z,8.10
2018-12-23T03:57:57.836Z,8.00
2018-12-23T04:00:24.106Z,8.10
2018-12-23T04:02:50.481Z,8.10
2018-12-23T04:05:16.732Z,8.00
2018-12-23T04:07:42.969Z,8.00
2018-12-23T04:10:09.241Z,8.00
2018-12-23T04:12:35.481Z,8.00
2018-12-23T04:15:01.869Z,8.00
2018-12-23T04:17:28.130Z,8.00
2018-12-23T04:19:54.380Z,8.10
2018-12-23T04:22:20.774Z,8.10
2018-12-23T04:24:54.225Z,8.10
2018-12-23T04:27:20.504Z,8.10
2018-12-23T04:29:46.873Z,8.10
2018-12-23T04:32:13.146Z,8.20
2018-12-23T04:34:39.401Z,8.20
2018-12-23T04:37:05.682Z,8.20
2018-12-23T04:39:32.038Z,8.20
2018-12-23T04:41:58.293Z,8.10
2018-12-23T04:44:24.546Z,8.20
2018-12-23T04:46:50.801Z,8.20
2018-12-23T04:49:17.050Z,8.20
2018-12-23T04:51:43.293Z,8.20
2018-12-23T04:54:09.558Z,8.20
2018-12-23T04:56:35.805Z,8.20
2018-12-23T04:59:02.158Z,8.30
2018-12-23T05:01:28.421Z,8.40
2018-12-23T05:03:54.717Z,8.40
2018-12-23T05:06:20.958Z,8.30
2018-12-23T05:08:47.239Z,8.20
2018-12-23T05:11:13.586Z,8.20
2018-12-23T05:13:39.821Z,8.20
2018-12-23T05:16:06.085Z,8.10
2018-12-23T05:18:32.338Z,8.00
2018-12-23T05:20:58.605Z,8.00
2018-12-23T05:23:24.860Z,7.90
2018-12-23T05:25:51.125Z,7.90
2018-12-23T05:28:17.360Z,7.90
2018-12-23T05:30:43.652Z,7.80
2018-12-23T05:33:09.914Z,7.80
2018-12-23T05:35:36.185Z,7.80
2018-12-23T05:38:02.457Z,7.80
2018-12-23T05:40:28.727Z,7.80
2018-12-23T05:42:54.995Z,7.80
2018-12-23T05:45:21.266Z,7.70
2018-12-23T05:47:47.522Z,7.80
2018-12-23T05:50:13.770Z,7.70
2018-12-23T05:52:40.108Z,7.80
2018-12-23T05:55:06.362Z,7.70
2018-12-23T05:57:32.517Z,7.70
2018-12-23T05:59:58.665Z,7.80
2018-12-23T06:02:24.945Z,7.80
2018-12-23T06:04:51.184Z,7.80
2018-12-23T06:07:17.425Z,7.80
2018-12-23T06:09:43.687Z,7.90
2018-12-23T06:12:10.064Z,7.80
2018-12-23T06:14:36.430Z,7.90
2018-12-23T06:17:02.723Z,7.80
2018-12-23T06:19:28.977Z,7.80
2018-12-23T06:21:55.253Z,7.80
2018-12-23T06:24:21.665Z,7.80
2018-12-23T06:26:47.905Z,7.80
2018-12-23T06:29:14.066Z,7.80
2018-12-23T06:31:40.321Z,7.80
2018-12-23T06:34:06.572Z,7.80
2018-12-23T06:36:32.826Z,7.80
2018-12-23T06:38:59.100Z,7.80
2018-12-23T06:41:25.359Z,7.80
2018-12-23T06:43:51.708Z,7.80
2018-12-23T06:46:17.978Z,7.80
2018-12-23T06:48:44.260Z,8.00
2018-12-23T06:51:10.522Z,8.10
2018-12-23T06:53:36.766Z,8.20
2018-12-23T06:56:03.049Z,8.10
2018-12-23T06:58:29.313Z,8.20
2018-12-23T07:00:55.574Z,8.20
2018-12-23T07:03:21.854Z,8.10
2018-12-23T07:05:48.117Z,8.20
2018-12-23T07:08:14.365Z,8.30
2018-12-23T07:10:40.637Z,8.30
2018-12-23T07:13:06.945Z,8.40
2018-12-23T07:15:33.128Z,8.50
2018-12-23T07:17:59.392Z,8.50
2018-12-23T07:20:25.633Z,8.50
2018-12-23T07:22:51.889Z,8.50
2018-12-23T07:25:18.154Z,8.40
2018-12-23T07:27:44.417Z,8.40
2018-12-23T07:30:10.665Z,8.30
2018-12-23T07:32:36.953Z,8.30
2018-12-23T07:35:03.934Z,8.20
2018-12-23T07:37:30.099Z,8.20
2018-12-23T07:40:03.265Z,8.20
2018-12-23T07:42:29.567Z,8.20
2018-12-23T07:44:55.809Z,8.20
2018-12-23T07:47:21.967Z,8.20
2018-12-23T07:49:48.342Z,8.20
2018-12-23T07:52:14.605Z,8.20
2018-12-23T07:54:40.872Z,8.20
2018-12-23T07:57:07.157Z,8.40
2018-12-23T07:59:33.410Z,8.40
2018-12-23T08:01:59.653Z,8.50
2018-12-23T08:04:25.909Z,8.50
2018-12-23T08:06:52.182Z,8.50
2018-12-23T08:09:18.441Z,8.50
2018-12-23T08:11:44.683Z,8.60
2018-12-23T08:14:10.968Z,8.60
2018-12-23T08:16:44.140Z,8.50
2018-12-23T08:19:11.002Z,8.50
2018-12-23T08:21:37.262Z,8.50
2018-12-23T08:24:03.514Z,8.60
2018-12-23T08:26:29.781Z,8.60
2018-12-23T08:29:03.000Z,8.70
2018-12-23T08:31:29.317Z,8.70
2018-12-23T08:33:55.590Z,8.70
2018-12-23T08:36:21.851Z,8.80
2018-12-23T08:38:48.233Z,8.80
2018-12-23T08:41:14.497Z,8.90
2018-12-23T08:43:40.767Z,8.90
2018-12-23T08:46:07.057Z,8.90
2018-12-23T08:48:33.317Z,8.90
2018-12-23T08:50:59.561Z,8.90
2018-12-23T08:53:25.821Z,8.90
2018-12-23T08:55:52.097Z,9.00
2018-12-23T08:58:18.342Z,9.10
2018-12-23T09:00:44.610Z,9.10
2018-12-23T09:03:18.691Z,9.20
2018-12-23T09:05:39.160Z,9.20
2018-12-23T09:08:05.417Z,9.20
2018-12-23T09:10:31.670Z,9.30
2018-12-23T09:12:57.925Z,9.30
2018-12-23T09:15:31.058Z,9.40
2018-12-23T09:17:57.265Z,9.40
2018-12-23T09:20:23.517Z,9.40
2018-12-23T09:22:49.807Z,9.40
2018-12-23T09:25:15.978Z,9.40
2018-12-23T09:27:49.183Z,9.50
2018-12-23T09:30:15.376Z,9.40
2018-12-23T09:32:41.713Z,9.40
2018-12-23T09:35:08.310Z,9.50
2018-12-23T09:37:34.553Z,9.50
2018-12-23T09:40:00.809Z,9.50
2018-12-23T09:42:27.183Z,9.50
2018-12-23T09:44:53.476Z,9.60
2018-12-23T09:47:19.749Z,9.60
2018-12-23T09:49:46.098Z,9.60
2018-12-23T09:52:12.341Z,9.60
2018-12-23T09:54:38.622Z,9.60
2018-12-23T09:57:04.865Z,9.70
2018-12-23T09:59:31.121Z,9.70
2018-12-23T10:01:57.377Z,9.80
2018-12-23T10:04:23.633Z,9.80
2018-12-23T10:06:49.919Z,9.80
2018-12-23T10:09:16.333Z,9.80
2018-12-23T10:11:42.637Z,9.80
2018-12-23T10:14:08.917Z,9.80
2018-12-23T10:16:35.162Z,9.80
2018-12-23T10:19:01.413Z,9.80
2018-12-23T10:21:27.698Z,9.80
2018-12-23T10:23:57.782Z,9.80
2018-12-23T10:26:24.049Z,9.80
2018-12-23T10:28:50.297Z,9.80
2018-12-23T10:31:16.566Z,9.80
2018-12-23T10:33:42.814Z,9.80
2018-12-23T10:36:09.172Z,9.80
2018-12-23T10:38:35.496Z,9.90
2018-12-23T10:41:01.794Z,9.90
2018-12-23T10:43:28.158Z,9.90
2018-12-23T10:46:01.485Z,9.90
2018-12-23T10:48:28.078Z,10.00
2018-12-23T10:50:54.425Z,9.90
2018-12-23T10:53:20.678Z,10.00
2018-12-23T10:55:46.931Z,10.00
2018-12-23T10:58:13.428Z,10.00
2018-12-23T11:00:39.684Z,10.10
2018-12-23T11:03:05.953Z,10.10
2018-12-23T11:05:32.234Z,10.30
2018-12-23T11:07:58.810Z,10.30
2018-12-23T11:10:25.061Z,10.30
2018-12-23T11:12:51.325Z,10.30
2018-12-23T11:15:18.003Z,10.30
2018-12-23T11:17:44.201Z,10.40
2018-12-23T11:20:10.417Z,10.30
2018-12-23T11:22:36.706Z,10.30
2018-12-23T11:25:03.309Z,10.40
2018-12-23T11:27:29.592Z,10.30
2018-12-23T11:29:55.782Z,10.30
2018-12-23T11:32:22.029Z,10.30
2018-12-23T11:34:48.294Z,10.20
2018-12-23T11:37:14.541Z,10.20
2018-12-23T11:39:40.805Z,10.20
2018-12-23T11:42:07.109Z,10.00
2018-12-23T11:44:33.403Z,10.10
2018-12-23T11:46:59.666Z,10.00
2018-12-23T11:49:25.938Z,10.00
2018-12-23T11:51:52.193Z,10.10
2018-12-23T11:54:18.434Z,10.00
2018-12-23T11:56:44.798Z,10.10
2018-12-23T11:59:11.114Z,10.00
2018-12-23T12:01:37.462Z,10.10
2018-12-23T12:04:03.774Z,10.10
2018-12-23T12:06:29.967Z,10.00
2018-12-23T12:08:56.222Z,10.00
2018-12-23T12:11:22.509Z,10.00
2018-12-23T12:13:48.778Z,10.00
2018-12-23T12:16:15.041Z,10.00
2018-12-23T12:18:41.293Z,10.00
2018-12-23T12:21:07.550Z,10.00
2018-12-23T12:24:05.406Z,10.00
2018-12-23T12:26:32.239Z,10.00
2018-12-23T12:28:58.566Z,10.00
2018-12-23T12:31:24.979Z,10.00
2018-12-23T12:33:51.354Z,9.90
2018-12-23T12:36:17.706Z,9.90
2018-12-23T12:38:51.969Z,9.90
2018-12-23T12:41:12.367Z,9.90
2018-12-23T12:43:38.707Z,9.90
2018-12-23T12:46:05.039Z,9.80
2018-12-23T12:48:31.374Z,9.80
2018-12-23T12:50:57.707Z,9.80
2018-12-23T12:53:24.055Z,9.70
2018-12-23T12:55:50.378Z,9.70
2018-12-23T12:58:16.731Z,9.70
2018-12-23T13:00:43.067Z,9.70
2018-12-23T13:03:09.426Z,9.60
2018-12-23T13:05:35.759Z,9.60
2018-12-23T13:08:02.085Z,9.60
2018-12-23T13:10:31.115Z,9.60
2018-12-23T13:12:57.527Z,9.60
2018-12-23T13:15:23.882Z,9.50
2018-12-23T13:17:50.206Z,9.60
2018-12-23T13:20:16.563Z,9.50
2018-12-23T13:22:42.896Z,9.50
2018-12-23T13:25:09.267Z,9.50
2018-12-23T13:27:35.598Z,9.50
2018-12-23T13:30:02.418Z,9.50
2018-12-23T13:32:28.775Z,9.50
2018-12-23T13:34:55.269Z,9.50
2018-12-23T13:37:21.637Z,9.50
2018-12-23T13:39:48.386Z,9.40
2018-12-23T13:42:21.668Z,9.40
2018-12-23T13:45:00.474Z,9.40
2018-12-23T13:47:51.719Z,9.30
2018-12-23T13:50:41.335Z,9.30
2018-12-23T13:53:26.543Z,9.30
2018-12-23T13:56:30.402Z,9.30
2018-12-23T13:59:03.536Z,9.30
2018-12-23T14:01:43.106Z,9.30
2018-12-23T14:04:31.934Z,9.30
2018-12-23T14:07:11.179Z,9.30
2018-12-23T14:09:53.654Z,9.20
2018-12-23T14:12:19.998Z,9.10
2018-12-23T14:14:46.327Z,9.10
2018-12-23T14:17:12.675Z,9.10
2018-12-23T14:19:39.012Z,9.10
2018-12-23T14:22:05.362Z,9.10
2018-12-23T14:24:31.695Z,9.00
2018-12-23T14:26:58.038Z,9.10
2018-12-23T14:29:24.391Z,9.00
2018-12-23T14:31:50.727Z,9.00
2018-12-23T14:34:17.072Z,9.00
2018-12-23T14:36:43.402Z,9.10
2018-12-23T14:39:09.771Z,9.10
2018-12-23T14:41:36.224Z,9.10
2018-12-23T14:44:02.775Z,9.10
2018-12-23T14:46:29.117Z,9.10
2018-12-23T14:48:55.464Z,9.10
2018-12-23T14:51:21.852Z,9.10
2018-12-23T14:53:48.296Z,9.10
2018-12-23T14:56:14.659Z,9.10
2018-12-23T14:58:40.999Z,9.10
2018-12-23T15:01:07.372Z,9.10
2018-12-23T15:03:33.822Z,9.10
2018-12-23T15:06:00.158Z,9.10
2018-12-23T15:08:26.575Z,9.10
2018-12-23T15:10:52.975Z,9.10
2018-12-23T15:13:19.308Z,9.10
2018-12-23T15:15:45.749Z,9.00
2018-12-23T15:18:12.233Z,9.10
2018-12-23T15:20:38.601Z,9.10
2018-12-23T15:23:10.660Z,9.10
2018-12-23T15:25:33.311Z,9.00
2018-12-23T15:27:59.636Z,9.00
2018-12-23T15:30:25.990Z,9.00
2018-12-23T15:32:52.310Z,8.90
2018-12-23T15:35:18.639Z,8.90
2018-12-23T15:37:44.982Z,8.90
2018-12-23T15:40:11.301Z,8.90
2018-12-23T15:42:37.659Z,8.80
2018-12-23T15:45:04.998Z,8.80
2018-12-23T15:47:31.351Z,8.80
2018-12-23T15:49:57.678Z,8.80
2018-12-23T15:52:24.022Z,8.80
2018-12-23T15:54:50.346Z,8.80
2018-12-23T15:57:16.783Z,8.80
2018-12-23T15:59:43.101Z,8.80
2018-12-23T16:02:09.458Z,8.80
2018-12-23T16:04:35.789Z,8.80
2018-12-23T16:07:02.126Z,8.70
2018-12-23T16:09:28.454Z,8.80
2018-12-23T16:11:54.781Z,8.70
2018-12-23T16:14:21.134Z,8.70
2018-12-23T16:16:47.468Z,8.80
2018-12-23T16:19:13.806Z,8.80
2018-12-23T16:21:40.169Z,8.80
2018-12-23T16:24:06.523Z,8.70
2018-12-23T16:26:32.882Z,8.80
2018-12-23T16:28:59.239Z,8.80
2018-12-23T16:31:25.562Z,8.70
2018-12-23T16:33:51.935Z,8.80
2018-12-23T16:36:18.254Z,8.70
2018-12-23T16:38:44.610Z,8.70
2018-12-23T16:41:10.975Z,8.80
2018-12-23T16:43:37.415Z,8.80
2018-12-23T16:46:03.756Z,8.80
2018-12-23T16:48:30.111Z,8.80
2018-12-23T16:50:56.445Z,8.80
2018-12-23T16:53:22.822Z,8.80
2018-12-23T16:55:49.151Z,8.80
2018-12-23T16:58:15.491Z,8.90
2018-12-23T17:00:41.863Z,8.90
2018-12-23T17:03:08.194Z,8.80
2018-12-23T17:05:34.551Z,8.90
2018-12-23T17:08:01.006Z,8.90
2018-12-23T17:10:27.407Z,8.90
2018-12-23T17:12:53.828Z,8.90
2018-12-23T17:15:20.180Z,8.80
2018-12-23T17:17:46.564Z,8.90
2018-12-23T17:20:12.960Z,8.90
2018-12-23T17:22:39.287Z,8.90
2018-12-23T17:25:05.650Z,8.90
2018-12-23T17:27:32.081Z,8.90
2018-12-23T17:29:58.544Z,8.90
2018-12-23T17:32:24.957Z,8.90
2018-12-23T17:34:51.292Z,8.90
2018-12-23T17:37:17.658Z,8.90
2018-12-23T17:39:44.079Z,8.90
2018-12-23T17:42:15.418Z,8.90
2018-12-23T17:44:41.793Z,8.90
2018-12-23T17:47:08.145Z,9.00
2018-12-23T17:49:34.492Z,9.00
2018-12-23T17:52:00.934Z,9.00
2018-12-23T17:54:27.263Z,9.00
2018-12-23T17:56:53.618Z,9.00
2018-12-23T17:59:19.934Z,9.00
2018-12-23T18:01:46.418Z,9.00
2018-12-23T18:04:12.768Z,9.00
2018-12-23T18:06:39.287Z,9.00
2018-12-23T18:09:05.617Z,9.10
2018-12-23T18:11:32.021Z,9.20
2018-12-23T18:13:58.438Z,9.10
2018-12-23T18:16:24.937Z,9.10
2018-12-23T18:18:51.440Z,9.10
2018-12-23T18:21:17.778Z,9.10
2018-12-23T18:23:44.127Z,9.10
2018-12-23T18:26:10.454Z,9.10
2018-12-23T18:28:36.798Z,9.20
2018-12-23T18:31:03.136Z,9.20
2018-12-23T18:33:29.483Z,9.30
2018-12-23T18:35:55.914Z,9.40
2018-12-23T18:38:22.267Z,9.50
2018-12-23T18:40:48.606Z,9.60
2018-12-23T18:43:14.970Z,9.80
2018-12-23T18:45:41.463Z,9.80
2018-12-23T18:48:07.934Z,9.90
2018-12-23T18:50:34.307Z,9.90
2018-12-23T18:53:00.643Z,10.00
2018-12-23T18:55:28.790Z,10.00
2018-12-23T18:57:55.134Z,10.20
2018-12-23T19:00:21.487Z,10.30
2018-12-23T19:02:47.823Z,10.40
2018-12-23T19:05:14.275Z,10.70
2018-12-23T19:07:40.894Z,10.70
2018-12-23T19:10:11.524Z,10.80
2018-12-23T19:12:58.695Z,10.80
2018-12-23T19:15:31.767Z,11.00
2018-12-23T19:18:01.903Z,11.00
2018-12-23T19:21:04.447Z,11.00
2018-12-23T19:23:34.582Z,11.10
2018-12-23T19:26:10.807Z,11.10
2018-12-23T19:28:43.949Z,11.10
2018-12-23T19:31:37.282Z,11.20
2018-12-23T19:34:19.535Z,11.20
2018-12-23T19:37:01.786Z,11.20
2018-12-23T19:39:31.962Z,11.20
2018-12-23T19:42:20.586Z,11.20
2018-12-23T19:45:00.148Z,11.20
2018-12-23T19:47:42.402Z,11.20
2018-12-23T19:50:24.539Z,11.30
2018-12-23T19:53:17.607Z,11.40
2018-12-23T19:55:57.017Z,11.40
2018-12-23T19:58:53.302Z,11.40
2018-12-23T20:01:23.459Z,11.40
2018-12-23T20:04:16.551Z,11.40
2018-12-23T20:07:06.787Z,11.40
2018-12-23T20:09:42.884Z,11.40
2018-12-23T20:12:31.027Z,11.40
2018-12-23T20:15:03.911Z,11.40
2018-12-23T20:17:48.994Z,11.40
2018-12-23T20:20:53.379Z,11.40
2018-12-23T20:23:43.379Z,11.30
2018-12-23T20:26:30.155Z,11.40
2018-12-23T20:29:09.310Z,11.40
2018-12-23T20:31:48.519Z,11.40
2018-12-23T20:34:21.411Z,11.40
2018-12-23T20:36:57.650Z,11.40
2018-12-23T20:39:59.946Z,11.30
2018-12-23T20:42:35.550Z,11.30
2018-12-23T20:45:24.370Z,11.30
2018-12-23T20:48:03.094Z,11.40
2018-12-23T20:50:44.897Z,11.40
2018-12-23T20:53:17.846Z,11.40
2018-12-23T20:55:50.675Z,11.40
2018-12-23T20:58:32.927Z,11.40
2018-12-23T21:01:23.757Z,11.40
2018-12-23T21:04:03.170Z,11.40
2018-12-23T21:06:36.066Z,11.40
2018-12-23T21:09:17.698Z,11.40
2018-12-23T21:12:00.079Z,11.30
2018-12-23T21:14:47.175Z,11.30
2018-12-23T21:17:23.179Z,11.30
2018-12-23T21:20:02.687Z,11.20
2018-12-23T21:22:47.486Z,11.10
2018-12-23T21:25:26.724Z,11.20
2018-12-23T21:28:18.385Z,11.10
2018-12-23T21:31:17.840Z,11.10
2018-12-23T21:34:00.735Z,11.10
2018-12-23T21:36:33.905Z,11.00
2018-12-23T21:39:19.261Z,11.00
2018-12-23T21:42:07.555Z,11.00
2018-12-23T21:44:55.578Z,10.60
2018-12-23T21:47:28.447Z,10.10
2018-12-23T21:50:15.466Z,9.90
2018-12-23T21:52:48.393Z,9.70
2018-12-23T21:55:30.142Z,9.50
2018-12-23T21:58:12.657Z,9.40
2018-12-23T22:00:55.163Z,9.30
2018-12-23T22:03:36.836Z,9.20
2018-12-23T22:06:10.156Z,9.20
2018-12-23T22:08:55.461Z,9.10
2018-12-23T22:11:52.607Z,9.10
2018-12-23T22:14:18.950Z,9.00
2018-12-23T22:16:45.514Z,8.90
2018-12-23T22:19:11.928Z,8.90
2018-12-23T22:21:38.330Z,8.80
2018-12-23T22:24:04.663Z,8.80
2018-12-23T22:26:31.013Z,8.70
2018-12-23T22:28:57.347Z,8.50
2018-12-23T22:31:23.702Z,8.30
2018-12-23T22:33:50.028Z,8.20
2018-12-23T22:36:16.399Z,8.10
2018-12-23T22:38:42.722Z,8.00
2018-12-23T22:41:09.090Z,7.90
2018-12-23T22:43:35.417Z,7.80
2018-12-23T22:46:01.747Z,7.70
2018-12-23T22:48:28.194Z,7.80
2018-12-23T22:50:54.531Z,7.80
2018-12-23T22:53:20.883Z,7.80
2018-12-23T22:55:47.211Z,7.70
2018-12-23T22:58:13.557Z,7.60
2018-12-23T23:00:40.007Z,7.60
2018-12-23T23:03:09.282Z,7.60
2018-12-23T23:05:34.632Z,7.60
2018-12-23T23:08:01.941Z,7.60
2018-12-23T23:10:28.422Z,7.60
2018-12-23T23:12:54.759Z,7.60
2018-12-23T23:15:21.086Z,7.60
2018-12-23T23:17:47.618Z,7.50
2018-12-23T23:20:13.951Z,7.50
2018-12-23T23:22:40.442Z,7.60
2018-12-23T23:25:06.769Z,7.70
2018-12-23T23:27:33.107Z,7.80
2018-12-23T23:29:59.446Z,7.70
2018-12-23T23:32:25.799Z,7.60
2018-12-23T23:34:52.155Z,7.60
2018-12-23T23:37:18.739Z,7.60
2018-12-23T23:39:45.086Z,7.50
2018-12-23T23:42:11.420Z,7.50
2018-12-23T23:44:37.744Z,7.60
2018-12-23T23:47:04.090Z,7.60
2018-12-23T23:49:30.410Z,7.50
2018-12-23T23:51:56.763Z,7.50
2018-12-23T23:54:23.142Z,7.50
2018-12-23T23:56:49.686Z,7.60
2018-12-23T23:59:16.012Z,7.60
